sensor_id;sensor_type;location;lat;lon;timestamp;P1;durP1;ratioP1;P2;durP2;ratioP2
53652;SDS011;39553;52.954;5.932;2023-04-09T00:02:17;51.47;;;28.92;;
53652;SDS011;39553;52.954;5.932;2023-04-09T00:04:43;49.83;;;30.67;;
53652;SDS011;39553;52.954;5.932;2023-04-09T00:07:09;56.20;;;32.28;;
53652;SDS011;39553;52.954;5.932;2023-04-09T00:09:35;52.40;;;32.53;;
53652;SDS011;39553;52.954;5.932;2023-04-09T00:12:01;55.70;;;33.17;;
53652;SDS011;39553;52.954;5.932;2023-04-09T00:14:27;59.45;;;32.17;;
53652;SDS011;39553;52.954;5.932;2023-04-09T00:16:53;51.60;;;30.10;;
53652;SDS011;39553;52.954;5.932;2023-04-09T00:19:19;53.35;;;28.55;;
53652;SDS011;39553;52.954;5.932;2023-04-09T00:21:45;51.35;;;28.13;;
53652;SDS011;39553;52.954;5.932;2023-04-09T00:24:12;45.95;;;28.35;;
53652;SDS011;39553;52.954;5.932;2023-04-09T00:26:38;46.92;;;27.25;;
53652;SDS011;39553;52.954;5.932;2023-04-09T00:29:05;49.83;;;27.30;;
53652;SDS011;39553;52.954;5.932;2023-04-09T00:31:31;46.30;;;25.45;;
53652;SDS011;39553;52.954;5.932;2023-04-09T00:33:57;45.45;;;25.17;;
53652;SDS011;39553;52.954;5.932;2023-04-09T00:36:23;48.65;;;26.40;;
53652;SDS011;39553;52.954;5.932;2023-04-09T00:38:49;41.92;;;25.85;;
53652;SDS011;39553;52.954;5.932;2023-04-09T00:41:16;48.00;;;26.80;;
53652;SDS011;39553;52.954;5.932;2023-04-09T00:43:42;46.70;;;26.77;;
53652;SDS011;39553;52.954;5.932;2023-04-09T00:46:07;50.15;;;27.15;;
53652;SDS011;39553;52.954;5.932;2023-04-09T00:48:33;49.95;;;26.70;;
53652;SDS011;39553;52.954;5.932;2023-04-09T00:50:59;50.03;;;27.73;;
53652;SDS011;39553;52.954;5.932;2023-04-09T00:53:27;47.17;;;27.48;;
53652;SDS011;39553;52.954;5.932;2023-04-09T00:55:54;52.45;;;28.40;;
53652;SDS011;39553;52.954;5.932;2023-04-09T00:58:20;49.40;;;28.90;;
53652;SDS011;39553;52.954;5.932;2023-04-09T01:00:46;52.75;;;28.25;;
53652;SDS011;39553;52.954;5.932;2023-04-09T01:03:12;51.42;;;28.48;;
53652;SDS011;39553;52.954;5.932;2023-04-09T01:14:23;47.88;;;28.05;;
53652;SDS011;39553;52.954;5.932;2023-04-09T01:16:59;52.38;;;30.65;;
53652;SDS011;39553;52.954;5.932;2023-04-09T01:20:12;56.95;;;31.15;;
53652;SDS011;39553;52.954;5.932;2023-04-09T01:22:39;56.15;;;31.30;;
53652;SDS011;39553;52.954;5.932;2023-04-09T01:25:24;64.15;;;31.58;;
53652;SDS011;39553;52.954;5.932;2023-04-09T01:28:14;56.10;;;31.05;;
53652;SDS011;39553;52.954;5.932;2023-04-09T01:30:52;55.08;;;31.05;;
53652;SDS011;39553;52.954;5.932;2023-04-09T01:33:23;70.03;;;33.25;;
53652;SDS011;39553;52.954;5.932;2023-04-09T01:35:51;63.50;;;34.33;;
53652;SDS011;39553;52.954;5.932;2023-04-09T01:38:19;73.75;;;36.88;;
53652;SDS011;39553;52.954;5.932;2023-04-09T01:40:46;80.43;;;38.70;;
53652;SDS011;39553;52.954;5.932;2023-04-09T01:43:13;81.15;;;37.05;;
53652;SDS011;39553;52.954;5.932;2023-04-09T01:45:39;74.35;;;37.55;;
53652;SDS011;39553;52.954;5.932;2023-04-09T01:48:06;78.10;;;38.83;;
53652;SDS011;39553;52.954;5.932;2023-04-09T01:50:33;73.03;;;37.55;;
53652;SDS011;39553;52.954;5.932;2023-04-09T01:52:59;79.50;;;39.22;;
53652;SDS011;39553;52.954;5.932;2023-04-09T01:55:26;80.75;;;37.72;;
53652;SDS011;39553;52.954;5.932;2023-04-09T01:57:52;80.85;;;39.60;;
53652;SDS011;39553;52.954;5.932;2023-04-09T02:00:18;76.15;;;38.83;;
53652;SDS011;39553;52.954;5.932;2023-04-09T02:05:32;79.82;;;38.22;;
53652;SDS011;39553;52.954;5.932;2023-04-09T02:08:09;73.68;;;34.90;;
53652;SDS011;39553;52.954;5.932;2023-04-09T02:10:37;75.10;;;35.40;;
53652;SDS011;39553;52.954;5.932;2023-04-09T02:13:04;73.93;;;35.42;;
53652;SDS011;39553;52.954;5.932;2023-04-09T02:15:34;79.45;;;37.53;;
53652;SDS011;39553;52.954;5.932;2023-04-09T02:18:02;80.00;;;37.08;;
53652;SDS011;39553;52.954;5.932;2023-04-09T02:20:28;71.25;;;35.80;;
53652;SDS011;39553;52.954;5.932;2023-04-09T02:22:54;67.53;;;35.13;;
53652;SDS011;39553;52.954;5.932;2023-04-09T02:25:21;73.82;;;36.92;;
53652;SDS011;39553;52.954;5.932;2023-04-09T02:27:47;78.75;;;36.05;;
53652;SDS011;39553;52.954;5.932;2023-04-09T02:30:12;74.65;;;38.28;;
53652;SDS011;39553;52.954;5.932;2023-04-09T02:32:38;70.57;;;36.10;;
53652;SDS011;39553;52.954;5.932;2023-04-09T02:35:04;72.68;;;36.65;;
53652;SDS011;39553;52.954;5.932;2023-04-09T02:37:30;79.05;;;37.55;;
53652;SDS011;39553;52.954;5.932;2023-04-09T02:39:56;75.88;;;36.53;;
53652;SDS011;39553;52.954;5.932;2023-04-09T02:42:21;79.75;;;38.00;;
53652;SDS011;39553;52.954;5.932;2023-04-09T02:44:48;81.22;;;37.13;;
53652;SDS011;39553;52.954;5.932;2023-04-09T02:47:14;79.65;;;38.67;;
53652;SDS011;39553;52.954;5.932;2023-04-09T02:49:39;79.82;;;38.97;;
53652;SDS011;39553;52.954;5.932;2023-04-09T02:52:05;80.80;;;38.60;;
53652;SDS011;39553;52.954;5.932;2023-04-09T02:54:31;78.40;;;37.00;;
53652;SDS011;39553;52.954;5.932;2023-04-09T02:56:56;74.05;;;36.17;;
53652;SDS011;39553;52.954;5.932;2023-04-09T02:59:22;72.25;;;35.83;;
53652;SDS011;39553;52.954;5.932;2023-04-09T03:01:48;74.85;;;36.00;;
53652;SDS011;39553;52.954;5.932;2023-04-09T03:04:14;77.80;;;36.60;;
53652;SDS011;39553;52.954;5.932;2023-04-09T03:06:39;73.18;;;35.97;;
53652;SDS011;39553;52.954;5.932;2023-04-09T03:09:06;69.00;;;36.83;;
53652;SDS011;39553;52.954;5.932;2023-04-09T03:11:31;90.63;;;36.28;;
53652;SDS011;39553;52.954;5.932;2023-04-09T03:13:57;72.03;;;34.78;;
53652;SDS011;39553;52.954;5.932;2023-04-09T03:16:23;73.95;;;35.70;;
53652;SDS011;39553;52.954;5.932;2023-04-09T03:18:50;80.25;;;35.22;;
53652;SDS011;39553;52.954;5.932;2023-04-09T03:21:15;81.50;;;39.08;;
53652;SDS011;39553;52.954;5.932;2023-04-09T03:23:41;72.18;;;36.53;;
53652;SDS011;39553;52.954;5.932;2023-04-09T03:26:07;76.57;;;34.92;;
53652;SDS011;39553;52.954;5.932;2023-04-09T03:28:32;72.75;;;34.88;;
53652;SDS011;39553;52.954;5.932;2023-04-09T03:30:58;73.43;;;36.03;;
53652;SDS011;39553;52.954;5.932;2023-04-09T03:33:24;72.75;;;35.63;;
53652;SDS011;39553;52.954;5.932;2023-04-09T03:35:50;77.15;;;34.10;;
53652;SDS011;39553;52.954;5.932;2023-04-09T03:38:16;76.10;;;34.85;;
53652;SDS011;39553;52.954;5.932;2023-04-09T03:40:42;77.40;;;34.92;;
53652;SDS011;39553;52.954;5.932;2023-04-09T03:43:07;68.13;;;33.00;;
53652;SDS011;39553;52.954;5.932;2023-04-09T03:45:33;72.63;;;36.25;;
53652;SDS011;39553;52.954;5.932;2023-04-09T03:47:59;70.38;;;34.60;;
53652;SDS011;39553;52.954;5.932;2023-04-09T03:50:25;73.20;;;35.85;;
53652;SDS011;39553;52.954;5.932;2023-04-09T03:52:51;79.57;;;35.65;;
53652;SDS011;39553;52.954;5.932;2023-04-09T03:55:16;64.88;;;33.25;;
53652;SDS011;39553;52.954;5.932;2023-04-09T03:57:42;60.75;;;31.83;;
53652;SDS011;39553;52.954;5.932;2023-04-09T04:00:08;62.00;;;29.90;;
53652;SDS011;39553;52.954;5.932;2023-04-09T04:02:34;57.40;;;30.10;;
53652;SDS011;39553;52.954;5.932;2023-04-09T04:05:00;54.25;;;28.98;;
53652;SDS011;39553;52.954;5.932;2023-04-09T04:07:26;56.72;;;27.50;;
53652;SDS011;39553;52.954;5.932;2023-04-09T04:09:51;50.08;;;26.05;;
53652;SDS011;39553;52.954;5.932;2023-04-09T04:12:17;53.00;;;26.33;;
53652;SDS011;39553;52.954;5.932;2023-04-09T04:14:43;52.70;;;25.90;;
53652;SDS011;39553;52.954;5.932;2023-04-09T04:17:09;56.70;;;27.17;;
53652;SDS011;39553;52.954;5.932;2023-04-09T04:19:35;52.40;;;25.63;;
53652;SDS011;39553;52.954;5.932;2023-04-09T04:22:01;52.70;;;27.08;;
53652;SDS011;39553;52.954;5.932;2023-04-09T04:24:27;46.83;;;24.02;;
53652;SDS011;39553;52.954;5.932;2023-04-09T04:26:53;45.85;;;22.95;;
53652;SDS011;39553;52.954;5.932;2023-04-09T04:29:18;45.78;;;23.88;;
53652;SDS011;39553;52.954;5.932;2023-04-09T04:31:44;46.97;;;22.70;;
53652;SDS011;39553;52.954;5.932;2023-04-09T04:34:10;43.20;;;22.35;;
53652;SDS011;39553;52.954;5.932;2023-04-09T04:36:36;43.35;;;21.92;;
53652;SDS011;39553;52.954;5.932;2023-04-09T04:39:02;41.78;;;22.83;;
53652;SDS011;39553;52.954;5.932;2023-04-09T04:41:27;45.20;;;22.55;;
53652;SDS011;39553;52.954;5.932;2023-04-09T04:43:53;44.45;;;22.30;;
53652;SDS011;39553;52.954;5.932;2023-04-09T04:46:19;48.38;;;23.52;;
53652;SDS011;39553;52.954;5.932;2023-04-09T04:48:45;45.85;;;23.60;;
53652;SDS011;39553;52.954;5.932;2023-04-09T04:51:11;45.88;;;23.58;;
53652;SDS011;39553;52.954;5.932;2023-04-09T04:53:36;46.38;;;23.38;;
53652;SDS011;39553;52.954;5.932;2023-04-09T04:56:02;45.65;;;22.65;;
53652;SDS011;39553;52.954;5.932;2023-04-09T04:58:28;46.88;;;23.15;;
53652;SDS011;39553;52.954;5.932;2023-04-09T05:00:54;50.60;;;24.58;;
53652;SDS011;39553;52.954;5.932;2023-04-09T05:03:20;47.60;;;24.27;;
53652;SDS011;39553;52.954;5.932;2023-04-09T05:05:46;47.75;;;23.15;;
53652;SDS011;39553;52.954;5.932;2023-04-09T05:08:12;43.92;;;23.27;;
53652;SDS011;39553;52.954;5.932;2023-04-09T05:10:39;47.95;;;25.23;;
53652;SDS011;39553;52.954;5.932;2023-04-09T05:13:06;51.95;;;25.35;;
53652;SDS011;39553;52.954;5.932;2023-04-09T05:15:32;55.17;;;25.27;;
53652;SDS011;39553;52.954;5.932;2023-04-09T05:18:06;48.13;;;23.85;;
53652;SDS011;39553;52.954;5.932;2023-04-09T05:20:32;48.50;;;23.13;;
53652;SDS011;39553;52.954;5.932;2023-04-09T05:22:58;44.75;;;23.20;;
53652;SDS011;39553;52.954;5.932;2023-04-09T05:25:24;55.63;;;25.40;;
53652;SDS011;39553;52.954;5.932;2023-04-09T05:27:50;54.03;;;26.17;;
53652;SDS011;39553;52.954;5.932;2023-04-09T05:30:17;49.38;;;24.83;;
53652;SDS011;39553;52.954;5.932;2023-04-09T05:32:43;54.00;;;24.92;;
53652;SDS011;39553;52.954;5.932;2023-04-09T05:35:09;45.42;;;24.85;;
53652;SDS011;39553;52.954;5.932;2023-04-09T05:37:34;48.17;;;25.38;;
53652;SDS011;39553;52.954;5.932;2023-04-09T05:40:00;50.67;;;26.13;;
53652;SDS011;39553;52.954;5.932;2023-04-09T05:42:26;49.60;;;24.17;;
53652;SDS011;39553;52.954;5.932;2023-04-09T05:44:52;50.40;;;25.67;;
53652;SDS011;39553;52.954;5.932;2023-04-09T05:47:18;56.80;;;25.15;;
53652;SDS011;39553;52.954;5.932;2023-04-09T05:49:46;58.78;;;27.65;;
53652;SDS011;39553;52.954;5.932;2023-04-09T05:52:13;48.80;;;24.67;;
53652;SDS011;39553;52.954;5.932;2023-04-09T05:54:40;48.92;;;25.02;;
53652;SDS011;39553;52.954;5.932;2023-04-09T05:57:06;52.80;;;24.65;;
53652;SDS011;39553;52.954;5.932;2023-04-09T05:59:32;45.63;;;24.65;;
53652;SDS011;39553;52.954;5.932;2023-04-09T06:01:58;49.72;;;25.10;;
53652;SDS011;39553;52.954;5.932;2023-04-09T06:04:23;48.42;;;24.33;;
53652;SDS011;39553;52.954;5.932;2023-04-09T06:06:49;45.05;;;24.10;;
53652;SDS011;39553;52.954;5.932;2023-04-09T06:09:15;45.42;;;24.95;;
53652;SDS011;39553;52.954;5.932;2023-04-09T06:11:41;45.67;;;22.92;;
53652;SDS011;39553;52.954;5.932;2023-04-09T06:14:07;48.60;;;25.27;;
53652;SDS011;39553;52.954;5.932;2023-04-09T06:16:33;46.90;;;24.98;;
53652;SDS011;39553;52.954;5.932;2023-04-09T06:18:58;40.33;;;21.70;;
53652;SDS011;39553;52.954;5.932;2023-04-09T06:21:24;45.50;;;23.42;;
53652;SDS011;39553;52.954;5.932;2023-04-09T06:23:50;40.45;;;22.50;;
53652;SDS011;39553;52.954;5.932;2023-04-09T06:26:17;48.80;;;25.13;;
53652;SDS011;39553;52.954;5.932;2023-04-09T06:28:43;48.58;;;24.42;;
53652;SDS011;39553;52.954;5.932;2023-04-09T06:31:09;45.67;;;24.13;;
53652;SDS011;39553;52.954;5.932;2023-04-09T06:33:35;42.70;;;22.90;;
53652;SDS011;39553;52.954;5.932;2023-04-09T06:36:01;44.40;;;24.10;;
53652;SDS011;39553;52.954;5.932;2023-04-09T06:38:26;46.42;;;25.00;;
53652;SDS011;39553;52.954;5.932;2023-04-09T06:40:54;46.45;;;25.58;;
53652;SDS011;39553;52.954;5.932;2023-04-09T06:43:21;48.47;;;23.98;;
53652;SDS011;39553;52.954;5.932;2023-04-09T06:45:47;46.83;;;23.27;;
53652;SDS011;39553;52.954;5.932;2023-04-09T06:48:14;48.20;;;24.08;;
53652;SDS011;39553;52.954;5.932;2023-04-09T06:50:40;44.53;;;24.05;;
53652;SDS011;39553;52.954;5.932;2023-04-09T06:53:05;46.03;;;22.15;;
53652;SDS011;39553;52.954;5.932;2023-04-09T06:55:31;46.35;;;24.48;;
53652;SDS011;39553;52.954;5.932;2023-04-09T06:57:57;50.60;;;25.10;;
53652;SDS011;39553;52.954;5.932;2023-04-09T07:00:23;47.95;;;24.38;;
53652;SDS011;39553;52.954;5.932;2023-04-09T07:02:48;47.92;;;25.83;;
53652;SDS011;39553;52.954;5.932;2023-04-09T07:05:15;43.28;;;23.40;;
53652;SDS011;39553;52.954;5.932;2023-04-09T07:07:43;50.83;;;25.27;;
53652;SDS011;39553;52.954;5.932;2023-04-09T07:10:09;46.53;;;25.77;;
53652;SDS011;39553;52.954;5.932;2023-04-09T07:12:35;50.00;;;26.20;;
53652;SDS011;39553;52.954;5.932;2023-04-09T07:15:02;49.80;;;24.17;;
53652;SDS011;39553;52.954;5.932;2023-04-09T07:17:29;46.38;;;24.42;;
53652;SDS011;39553;52.954;5.932;2023-04-09T07:19:56;50.83;;;26.65;;
53652;SDS011;39553;52.954;5.932;2023-04-09T07:22:23;46.47;;;24.60;;
53652;SDS011;39553;52.954;5.932;2023-04-09T07:24:50;49.00;;;25.98;;
53652;SDS011;39553;52.954;5.932;2023-04-09T07:27:23;52.75;;;25.95;;
53652;SDS011;39553;52.954;5.932;2023-04-09T07:29:50;52.33;;;25.50;;
53652;SDS011;39553;52.954;5.932;2023-04-09T07:32:18;49.20;;;25.98;;
53652;SDS011;39553;52.954;5.932;2023-04-09T07:34:44;53.30;;;27.15;;
53652;SDS011;39553;52.954;5.932;2023-04-09T07:37:10;50.17;;;26.40;;
53652;SDS011;39553;52.954;5.932;2023-04-09T07:39:36;52.33;;;26.80;;
53652;SDS011;39553;52.954;5.932;2023-04-09T07:42:03;53.28;;;27.83;;
53652;SDS011;39553;52.954;5.932;2023-04-09T07:44:35;58.05;;;27.85;;
53652;SDS011;39553;52.954;5.932;2023-04-09T07:47:02;51.40;;;27.30;;
53652;SDS011;39553;52.954;5.932;2023-04-09T07:49:28;50.88;;;25.85;;
53652;SDS011;39553;52.954;5.932;2023-04-09T07:51:55;47.88;;;25.23;;
53652;SDS011;39553;52.954;5.932;2023-04-09T07:54:21;53.38;;;27.02;;
53652;SDS011;39553;52.954;5.932;2023-04-09T07:56:47;48.72;;;25.40;;
53652;SDS011;39553;52.954;5.932;2023-04-09T07:59:13;47.17;;;24.42;;
53652;SDS011;39553;52.954;5.932;2023-04-09T08:01:41;46.22;;;23.88;;
53652;SDS011;39553;52.954;5.932;2023-04-09T08:04:08;45.92;;;25.63;;
53652;SDS011;39553;52.954;5.932;2023-04-09T08:06:34;51.08;;;25.58;;
53652;SDS011;39553;52.954;5.932;2023-04-09T08:09:00;44.55;;;23.50;;
53652;SDS011;39553;52.954;5.932;2023-04-09T08:11:26;41.60;;;22.25;;
53652;SDS011;39553;52.954;5.932;2023-04-09T08:13:52;41.38;;;23.50;;
53652;SDS011;39553;52.954;5.932;2023-04-09T08:16:19;41.28;;;21.85;;
53652;SDS011;39553;52.954;5.932;2023-04-09T08:18:51;39.28;;;21.80;;
53652;SDS011;39553;52.954;5.932;2023-04-09T08:21:18;43.35;;;22.63;;
53652;SDS011;39553;52.954;5.932;2023-04-09T08:23:44;41.22;;;22.92;;
53652;SDS011;39553;52.954;5.932;2023-04-09T08:26:10;37.53;;;20.92;;
53652;SDS011;39553;52.954;5.932;2023-04-09T08:28:35;41.90;;;22.63;;
53652;SDS011;39553;52.954;5.932;2023-04-09T08:31:01;38.42;;;21.17;;
53652;SDS011;39553;52.954;5.932;2023-04-09T08:33:27;38.75;;;22.25;;
53652;SDS011;39553;52.954;5.932;2023-04-09T08:35:53;41.63;;;23.58;;
53652;SDS011;39553;52.954;5.932;2023-04-09T08:38:19;40.03;;;22.20;;
53652;SDS011;39553;52.954;5.932;2023-04-09T08:40:46;38.15;;;21.15;;
53652;SDS011;39553;52.954;5.932;2023-04-09T08:43:13;41.92;;;22.05;;
53652;SDS011;39553;52.954;5.932;2023-04-09T08:45:43;39.65;;;22.20;;
53652;SDS011;39553;52.954;5.932;2023-04-09T08:48:09;35.47;;;21.50;;
53652;SDS011;39553;52.954;5.932;2023-04-09T08:50:37;36.67;;;20.52;;
53652;SDS011;39553;52.954;5.932;2023-04-09T08:53:05;42.20;;;22.27;;
53652;SDS011;39553;52.954;5.932;2023-04-09T08:55:32;41.55;;;22.25;;
53652;SDS011;39553;52.954;5.932;2023-04-09T08:58:05;40.13;;;22.15;;
53652;SDS011;39553;52.954;5.932;2023-04-09T09:00:37;36.63;;;21.20;;
53652;SDS011;39553;52.954;5.932;2023-04-09T09:03:04;36.47;;;20.77;;
53652;SDS011;39553;52.954;5.932;2023-04-09T09:08:08;38.55;;;21.40;;
53652;SDS011;39553;52.954;5.932;2023-04-09T09:10:42;35.90;;;20.65;;
53652;SDS011;39553;52.954;5.932;2023-04-09T09:13:19;35.05;;;20.42;;
53652;SDS011;39553;52.954;5.932;2023-04-09T09:15:47;34.88;;;20.40;;
53652;SDS011;39553;52.954;5.932;2023-04-09T09:18:36;34.37;;;19.77;;
53652;SDS011;39553;52.954;5.932;2023-04-09T09:21:16;38.72;;;21.20;;
53652;SDS011;39553;52.954;5.932;2023-04-09T09:23:43;33.53;;;20.35;;
53652;SDS011;39553;52.954;5.932;2023-04-09T09:26:16;35.00;;;19.63;;
53652;SDS011;39553;52.954;5.932;2023-04-09T09:28:45;35.53;;;20.33;;
53652;SDS011;39553;52.954;5.932;2023-04-09T09:31:12;35.55;;;20.73;;
53652;SDS011;39553;52.954;5.932;2023-04-09T09:33:39;37.83;;;21.95;;
53652;SDS011;39553;52.954;5.932;2023-04-09T09:36:06;41.42;;;22.60;;
53652;SDS011;39553;52.954;5.932;2023-04-09T09:38:51;41.20;;;22.73;;
53652;SDS011;39553;52.954;5.932;2023-04-09T09:41:18;35.35;;;20.50;;
53652;SDS011;39553;52.954;5.932;2023-04-09T09:43:45;40.30;;;23.45;;
53652;SDS011;39553;52.954;5.932;2023-04-09T09:46:11;34.78;;;20.85;;
53652;SDS011;39553;52.954;5.932;2023-04-09T09:48:37;39.53;;;23.30;;
53652;SDS011;39553;52.954;5.932;2023-04-09T09:51:07;38.53;;;22.40;;
53652;SDS011;39553;52.954;5.932;2023-04-09T09:53:35;37.97;;;22.25;;
53652;SDS011;39553;52.954;5.932;2023-04-09T09:56:03;37.08;;;21.35;;
53652;SDS011;39553;52.954;5.932;2023-04-09T09:58:31;39.47;;;21.10;;
53652;SDS011;39553;52.954;5.932;2023-04-09T10:01:18;37.13;;;20.45;;
53652;SDS011;39553;52.954;5.932;2023-04-09T10:03:45;36.50;;;21.40;;
53652;SDS011;39553;52.954;5.932;2023-04-09T10:06:15;38.95;;;21.52;;
53652;SDS011;39553;52.954;5.932;2023-04-09T10:08:41;37.60;;;21.48;;
53652;SDS011;39553;52.954;5.932;2023-04-09T10:11:08;35.80;;;20.75;;
53652;SDS011;39553;52.954;5.932;2023-04-09T10:13:34;39.70;;;22.02;;
53652;SDS011;39553;52.954;5.932;2023-04-09T10:16:04;33.13;;;19.63;;
53652;SDS011;39553;52.954;5.932;2023-04-09T10:18:32;33.92;;;20.13;;
53652;SDS011;39553;52.954;5.932;2023-04-09T10:24:12;32.38;;;20.50;;
53652;SDS011;39553;52.954;5.932;2023-04-09T10:26:40;34.20;;;18.70;;
53652;SDS011;39553;52.954;5.932;2023-04-09T10:29:13;34.08;;;20.70;;
53652;SDS011;39553;52.954;5.932;2023-04-09T10:31:47;33.93;;;21.83;;
53652;SDS011;39553;52.954;5.932;2023-04-09T10:34:21;28.20;;;17.80;;
53652;SDS011;39553;52.954;5.932;2023-04-09T10:36:52;28.30;;;17.57;;
53652;SDS011;39553;52.954;5.932;2023-04-09T10:39:24;33.50;;;17.88;;
53652;SDS011;39553;52.954;5.932;2023-04-09T10:41:57;29.00;;;17.90;;
53652;SDS011;39553;52.954;5.932;2023-04-09T10:44:27;29.67;;;19.92;;
53652;SDS011;39553;52.954;5.932;2023-04-09T10:46:56;29.73;;;20.50;;
53652;SDS011;39553;52.954;5.932;2023-04-09T10:49:25;31.98;;;20.80;;
53652;SDS011;39553;52.954;5.932;2023-04-09T10:52:01;34.85;;;21.60;;
53652;SDS011;39553;52.954;5.932;2023-04-09T10:59:42;38.55;;;26.60;;
53652;SDS011;39553;52.954;5.932;2023-04-09T11:07:46;29.15;;;21.05;;
53652;SDS011;39553;52.954;5.932;2023-04-09T11:10:33;27.52;;;21.48;;
53652;SDS011;39553;52.954;5.932;2023-04-09T11:13:00;27.23;;;20.02;;
53652;SDS011;39553;52.954;5.932;2023-04-09T11:15:26;27.15;;;20.58;;
53652;SDS011;39553;52.954;5.932;2023-04-09T11:17:53;26.88;;;20.40;;
53652;SDS011;39553;52.954;5.932;2023-04-09T11:20:20;29.15;;;20.45;;
53652;SDS011;39553;52.954;5.932;2023-04-09T11:22:48;26.70;;;19.42;;
53652;SDS011;39553;52.954;5.932;2023-04-09T11:25:20;26.08;;;20.30;;
53652;SDS011;39553;52.954;5.932;2023-04-09T11:27:47;27.58;;;19.00;;
53652;SDS011;39553;52.954;5.932;2023-04-09T11:30:15;28.92;;;20.63;;
53652;SDS011;39553;52.954;5.932;2023-04-09T11:32:41;24.90;;;18.15;;
53652;SDS011;39553;52.954;5.932;2023-04-09T11:35:10;27.30;;;19.52;;
53652;SDS011;39553;52.954;5.932;2023-04-09T11:37:37;27.17;;;17.17;;
53652;SDS011;39553;52.954;5.932;2023-04-09T11:40:03;29.23;;;20.10;;
53652;SDS011;39553;52.954;5.932;2023-04-09T11:42:31;25.48;;;19.08;;
53652;SDS011;39553;52.954;5.932;2023-04-09T11:44:57;27.75;;;20.42;;
53652;SDS011;39553;52.954;5.932;2023-04-09T11:47:24;31.92;;;22.23;;
53652;SDS011;39553;52.954;5.932;2023-04-09T11:49:51;24.73;;;18.20;;
53652;SDS011;39553;52.954;5.932;2023-04-09T11:52:17;25.63;;;18.58;;
53652;SDS011;39553;52.954;5.932;2023-04-09T11:54:49;27.52;;;20.85;;
53652;SDS011;39553;52.954;5.932;2023-04-09T11:57:15;25.67;;;18.85;;
53652;SDS011;39553;52.954;5.932;2023-04-09T11:59:41;27.25;;;19.73;;
53652;SDS011;39553;52.954;5.932;2023-04-09T12:02:07;25.75;;;18.90;;
53652;SDS011;39553;52.954;5.932;2023-04-09T12:04:33;28.80;;;19.02;;
53652;SDS011;39553;52.954;5.932;2023-04-09T12:06:59;24.50;;;17.77;;
53652;SDS011;39553;52.954;5.932;2023-04-09T12:09:25;24.40;;;18.20;;
53652;SDS011;39553;52.954;5.932;2023-04-09T12:11:52;23.90;;;17.75;;
53652;SDS011;39553;52.954;5.932;2023-04-09T12:14:18;25.40;;;18.60;;
53652;SDS011;39553;52.954;5.932;2023-04-09T12:16:49;26.95;;;18.83;;
53652;SDS011;39553;52.954;5.932;2023-04-09T12:19:15;24.55;;;17.13;;
53652;SDS011;39553;52.954;5.932;2023-04-09T12:21:51;25.65;;;16.38;;
53652;SDS011;39553;52.954;5.932;2023-04-09T12:24:19;23.15;;;16.50;;
53652;SDS011;39553;52.954;5.932;2023-04-09T12:26:47;23.50;;;15.80;;
53652;SDS011;39553;52.954;5.932;2023-04-09T12:29:14;22.48;;;15.77;;
53652;SDS011;39553;52.954;5.932;2023-04-09T12:31:41;24.33;;;15.63;;
53652;SDS011;39553;52.954;5.932;2023-04-09T12:34:08;22.90;;;16.70;;
53652;SDS011;39553;52.954;5.932;2023-04-09T12:36:34;24.50;;;16.52;;
53652;SDS011;39553;52.954;5.932;2023-04-09T12:39:00;24.52;;;16.00;;
53652;SDS011;39553;52.954;5.932;2023-04-09T12:41:27;21.13;;;15.63;;
53652;SDS011;39553;52.954;5.932;2023-04-09T12:43:53;22.33;;;15.15;;
53652;SDS011;39553;52.954;5.932;2023-04-09T12:46:19;26.00;;;16.83;;
53652;SDS011;39553;52.954;5.932;2023-04-09T12:48:45;26.80;;;16.75;;
53652;SDS011;39553;52.954;5.932;2023-04-09T12:51:12;21.90;;;15.27;;
53652;SDS011;39553;52.954;5.932;2023-04-09T12:53:38;24.45;;;15.80;;
53652;SDS011;39553;52.954;5.932;2023-04-09T12:56:05;22.75;;;16.85;;
53652;SDS011;39553;52.954;5.932;2023-04-09T12:58:32;27.75;;;18.25;;
53652;SDS011;39553;52.954;5.932;2023-04-09T13:00:58;24.38;;;16.45;;
53652;SDS011;39553;52.954;5.932;2023-04-09T13:03:24;19.88;;;14.40;;
53652;SDS011;39553;52.954;5.932;2023-04-09T13:05:49;25.33;;;16.80;;
53652;SDS011;39553;52.954;5.932;2023-04-09T13:08:15;24.33;;;15.77;;
53652;SDS011;39553;52.954;5.932;2023-04-09T13:10:42;23.13;;;16.52;;
53652;SDS011;39553;52.954;5.932;2023-04-09T13:13:08;22.77;;;15.60;;
53652;SDS011;39553;52.954;5.932;2023-04-09T13:15:39;23.67;;;16.02;;
53652;SDS011;39553;52.954;5.932;2023-04-09T13:18:09;22.33;;;15.45;;
53652;SDS011;39553;52.954;5.932;2023-04-09T13:20:36;23.77;;;15.35;;
53652;SDS011;39553;52.954;5.932;2023-04-09T13:23:02;24.95;;;15.98;;
53652;SDS011;39553;52.954;5.932;2023-04-09T13:25:28;21.65;;;14.95;;
53652;SDS011;39553;52.954;5.932;2023-04-09T13:27:54;23.02;;;16.73;;
53652;SDS011;39553;52.954;5.932;2023-04-09T13:30:20;22.85;;;16.05;;
53652;SDS011;39553;52.954;5.932;2023-04-09T13:32:46;22.20;;;16.02;;
53652;SDS011;39553;52.954;5.932;2023-04-09T13:35:13;24.25;;;15.82;;
53652;SDS011;39553;52.954;5.932;2023-04-09T13:37:39;20.63;;;15.00;;
53652;SDS011;39553;52.954;5.932;2023-04-09T13:40:05;20.40;;;14.55;;
53652;SDS011;39553;52.954;5.932;2023-04-09T13:42:33;22.40;;;16.25;;
53652;SDS011;39553;52.954;5.932;2023-04-09T13:44:59;19.85;;;14.43;;
53652;SDS011;39553;52.954;5.932;2023-04-09T13:47:25;22.02;;;14.85;;
53652;SDS011;39553;52.954;5.932;2023-04-09T13:49:51;20.63;;;15.50;;
53652;SDS011;39553;52.954;5.932;2023-04-09T13:52:17;17.58;;;11.43;;
53652;SDS011;39553;52.954;5.932;2023-04-09T13:54:43;18.85;;;13.02;;
53652;SDS011;39553;52.954;5.932;2023-04-09T13:57:09;18.02;;;12.23;;
53652;SDS011;39553;52.954;5.932;2023-04-09T13:59:35;21.90;;;12.68;;
53652;SDS011;39553;52.954;5.932;2023-04-09T14:02:02;21.42;;;14.23;;
53652;SDS011;39553;52.954;5.932;2023-04-09T14:04:28;20.90;;;12.82;;
53652;SDS011;39553;52.954;5.932;2023-04-09T14:06:55;19.73;;;13.88;;
53652;SDS011;39553;52.954;5.932;2023-04-09T14:09:21;20.13;;;14.20;;
53652;SDS011;39553;52.954;5.932;2023-04-09T14:11:47;20.25;;;13.40;;
53652;SDS011;39553;52.954;5.932;2023-04-09T14:14:13;21.65;;;13.82;;
53652;SDS011;39553;52.954;5.932;2023-04-09T14:16:40;17.75;;;13.02;;
53652;SDS011;39553;52.954;5.932;2023-04-09T14:19:05;19.13;;;13.27;;
53652;SDS011;39553;52.954;5.932;2023-04-09T14:21:32;19.98;;;13.32;;
53652;SDS011;39553;52.954;5.932;2023-04-09T14:23:58;23.52;;;14.55;;
53652;SDS011;39553;52.954;5.932;2023-04-09T14:26:23;18.17;;;11.88;;
53652;SDS011;39553;52.954;5.932;2023-04-09T14:28:50;18.85;;;11.85;;
53652;SDS011;39553;52.954;5.932;2023-04-09T14:31:16;20.48;;;13.45;;
53652;SDS011;39553;52.954;5.932;2023-04-09T14:33:45;17.85;;;12.55;;
53652;SDS011;39553;52.954;5.932;2023-04-09T14:36:11;21.92;;;13.40;;
53652;SDS011;39553;52.954;5.932;2023-04-09T14:38:37;18.60;;;13.00;;
53652;SDS011;39553;52.954;5.932;2023-04-09T14:41:03;22.55;;;14.05;;
53652;SDS011;39553;52.954;5.932;2023-04-09T14:43:29;19.63;;;13.18;;
53652;SDS011;39553;52.954;5.932;2023-04-09T14:45:55;18.95;;;12.30;;
53652;SDS011;39553;52.954;5.932;2023-04-09T14:48:21;16.77;;;12.00;;
53652;SDS011;39553;52.954;5.932;2023-04-09T14:50:46;17.55;;;12.23;;